createdAt,value
2023-02-14T00:02:57.267Z,102028.53
2023-02-14T00:06:20.031Z,102024.03
2023-02-14T00:09:42.488Z,102029.34
2023-02-14T00:13:05.461Z,102031.16
2023-02-14T00:16:28.100Z,102014.69
2023-02-14T00:19:51.069Z,102012.16
2023-02-14T00:23:13.823Z,102021.59
2023-02-14T00:26:38.778Z,102025.94
2023-02-14T00:30:03.092Z,102023.22
2023-02-14T00:33:27.059Z,102013.78
2023-02-14T00:36:49.507Z,101998.91
2023-02-14T00:40:15.235Z,102000.56
2023-02-14T00:43:37.373Z,102005.81
2023-02-14T00:47:00.294Z,102021.66
2023-02-14T00:50:24.171Z,102032.19
2023-02-14T00:53:47.491Z,102029.50
2023-02-14T00:57:09.833Z,102028.41
2023-02-14T01:00:33.068Z,102026.66
2023-02-14T01:03:55.471Z,102029.31
2023-02-14T01:07:19.234Z,102019.34
2023-02-14T01:10:41.665Z,102008.47
2023-02-14T01:14:04.131Z,101999.97
2023-02-14T01:17:26.688Z,102002.06
2023-02-14T01:20:49.682Z,101997.00
2023-02-14T01:24:13.492Z,101996.66
2023-02-14T01:27:37.126Z,101985.41
2023-02-14T01:30:59.603Z,102001.56
2023-02-14T01:34:22.886Z,101990.72
2023-02-14T01:37:45.311Z,101990.06
2023-02-14T01:41:09.421Z,101989.72
2023-02-14T01:44:58.894Z,101981.75
2023-02-14T01:48:22.261Z,101983.09
2023-02-14T01:51:45.522Z,101981.47
2023-02-14T01:55:13.030Z,101983.31
2023-02-14T01:58:40.819Z,101983.91
2023-02-14T02:02:04.231Z,101983.38
2023-02-14T02:05:27.274Z,101978.97
2023-02-14T02:08:53.192Z,101973.75
2023-02-14T02:12:15.650Z,101974.47
2023-02-14T02:15:43.748Z,101972.69
2023-02-14T02:19:22.269Z,101965.69
2023-02-14T02:23:21.562Z,101950.88
2023-02-14T02:27:26.230Z,101954.78
2023-02-14T02:31:03.222Z,101952.81
2023-02-14T02:34:43.956Z,101957.12
2023-02-14T02:38:15.923Z,101951.34
2023-02-14T02:41:49.212Z,101949.22
2023-02-14T02:45:13.951Z,101954.03
2023-02-14T02:48:38.524Z,101951.78
2023-02-14T02:52:19.285Z,101941.69
2023-02-14T02:56:02.233Z,101942.16
2023-02-14T02:59:25.881Z,101945.13
2023-02-14T03:03:07.999Z,101949.34
2023-02-14T03:06:31.344Z,101948.81
2023-02-14T03:09:58.175Z,101945.44
2023-02-14T03:13:46.238Z,101955.87
2023-02-14T03:17:11.015Z,101947.56
2023-02-14T03:20:37.023Z,101949.31
2023-02-14T03:24:05.435Z,101952.72
2023-02-14T03:27:29.727Z,101946.38
2023-02-14T03:30:59.582Z,101941.78
2023-02-14T03:34:24.949Z,101940.56
2023-02-14T03:37:50.042Z,101942.28
2023-02-14T03:41:13.943Z,101943.72
2023-02-14T03:44:36.547Z,101947.56
2023-02-14T03:48:03.364Z,101940.81
2023-02-14T03:51:26.180Z,101937.38
2023-02-14T03:54:49.065Z,101936.97
2023-02-14T03:58:13.505Z,101947.81
2023-02-14T04:01:37.750Z,101942.84
2023-02-14T04:05:02.278Z,101945.69
2023-02-14T04:08:28.063Z,101941.53
2023-02-14T04:11:51.464Z,101941.97
2023-02-14T04:15:14.180Z,101944.16
2023-02-14T04:18:54.511Z,101937.38
2023-02-14T04:22:18.382Z,101941.59
2023-02-14T04:25:43.107Z,101942.44
2023-02-14T04:29:05.258Z,101940.44
2023-02-14T04:32:28.262Z,101945.00
2023-02-14T04:35:50.691Z,101943.13
2023-02-14T04:39:14.616Z,101944.28
2023-02-14T04:42:37.065Z,101942.47
2023-02-14T04:45:59.721Z,101941.50
2023-02-14T04:49:22.137Z,101936.66
2023-02-14T04:52:45.226Z,101945.06
2023-02-14T04:56:09.551Z,101937.38
2023-02-14T04:59:32.444Z,101938.06
2023-02-14T05:02:55.007Z,101940.94
2023-02-14T05:06:17.580Z,101941.22
2023-02-14T05:09:40.025Z,101939.59
2023-02-14T05:13:04.240Z,101941.31
2023-02-14T05:16:26.609Z,101938.56
2023-02-14T05:19:49.620Z,101931.91
2023-02-14T05:23:13.908Z,101951.22
2023-02-14T05:26:36.985Z,101961.38
2023-02-14T05:30:00.807Z,101962.84
2023-02-14T05:33:23.588Z,101962.34
2023-02-14T05:36:46.017Z,101960.13
2023-02-14T05:40:09.729Z,101964.31
2023-02-14T05:43:32.437Z,101969.75
2023-02-14T05:46:56.582Z,101966.72
2023-02-14T05:50:19.511Z,101967.03
2023-02-14T05:53:42.110Z,101956.13
2023-02-14T05:57:04.764Z,101967.97
2023-02-14T06:00:28.136Z,101971.41
2023-02-14T06:03:52.354Z,101979.16
2023-02-14T06:07:15.094Z,101985.53
2023-02-14T06:10:38.043Z,101979.47
2023-02-14T06:14:00.540Z,101984.00
2023-02-14T06:17:23.672Z,101989.09
2023-02-14T06:20:47.732Z,101989.44
2023-02-14T06:24:10.592Z,102001.59
2023-02-14T06:27:33.343Z,102003.66
2023-02-14T06:30:56.281Z,102003.31
2023-02-14T06:34:18.731Z,102020.59
2023-02-14T06:37:42.629Z,102027.75
2023-02-14T06:41:05.951Z,102030.69
2023-02-14T06:44:29.392Z,102035.31
2023-02-14T06:47:51.872Z,102026.44
2023-02-14T06:51:14.385Z,102031.16
2023-02-14T06:54:38.396Z,102032.22
2023-02-14T06:58:00.676Z,102035.28
2023-02-14T07:01:23.408Z,102032.12
2023-02-14T07:04:46.487Z,102034.09
2023-02-14T07:08:09.279Z,102036.87
2023-02-14T07:11:33.516Z,102046.00
2023-02-14T07:14:55.967Z,102034.78
2023-02-14T07:18:19.068Z,102037.72
2023-02-14T07:21:41.691Z,102039.63
2023-02-14T07:25:04.442Z,102031.00
2023-02-14T07:28:28.020Z,102035.53
2023-02-14T07:31:50.953Z,102036.44
2023-02-14T07:35:16.343Z,102029.38
2023-02-14T07:38:38.999Z,102031.06
2023-02-14T07:42:01.269Z,102025.47
2023-02-14T07:45:26.776Z,102032.09
2023-02-14T07:48:51.765Z,102035.06
2023-02-14T07:52:14.225Z,102023.06
2023-02-14T07:55:36.773Z,102027.47
2023-02-14T07:58:59.465Z,102026.37
2023-02-14T08:02:23.404Z,102033.00
2023-02-14T08:05:57.049Z,102034.72
2023-02-14T08:09:24.851Z,102033.19
2023-02-14T08:13:03.491Z,102034.63
2023-02-14T08:16:25.723Z,102026.06
2023-02-14T08:19:50.127Z,102019.78
2023-02-14T08:23:12.661Z,102022.00
2023-02-14T08:26:35.627Z,102022.78
2023-02-14T08:29:58.162Z,102027.72
2023-02-14T08:33:20.794Z,102027.72
2023-02-14T08:36:44.597Z,102026.16
2023-02-14T08:40:08.776Z,102023.50
2023-02-14T08:43:33.285Z,102022.87
2023-02-14T08:46:56.917Z,102015.12
2023-02-14T08:50:19.711Z,102021.44
2023-02-14T08:53:44.084Z,102022.87
2023-02-14T08:57:06.829Z,102015.50
2023-02-14T09:00:29.814Z,102021.03
2023-02-14T09:03:52.536Z,102023.00
2023-02-14T09:07:15.484Z,102017.16
2023-02-14T09:10:39.391Z,102026.94
2023-02-14T09:14:04.681Z,102029.97
2023-02-14T09:17:27.510Z,102022.34
2023-02-14T09:20:50.509Z,102026.84
2023-02-14T09:24:12.929Z,102023.59
2023-02-14T09:27:39.202Z,102033.53
2023-02-14T09:31:08.923Z,102034.50
2023-02-14T09:34:32.091Z,102029.31
2023-02-14T09:37:54.597Z,102032.28
2023-02-14T09:41:44.763Z,102027.91
2023-02-14T09:45:11.776Z,102033.25
2023-02-14T09:48:36.330Z,102039.94
2023-02-14T09:51:58.481Z,102035.53
2023-02-14T09:55:21.137Z,102036.97
2023-02-14T09:58:46.014Z,102036.59
2023-02-14T10:02:26.743Z,102032.50
2023-02-14T10:05:51.947Z,102036.03
2023-02-14T10:09:21.286Z,102031.06
2023-02-14T10:12:46.581Z,102036.69
2023-02-14T10:16:13.056Z,102025.72
2023-02-14T10:19:39.616Z,102032.00
2023-02-14T10:23:05.571Z,102026.81
2023-02-14T10:26:31.453Z,102024.31
2023-02-14T10:29:53.829Z,102023.69
2023-02-14T10:33:17.788Z,102010.69
2023-02-14T10:36:49.479Z,102013.16
2023-02-14T10:40:30.915Z,102015.00
2023-02-14T10:43:57.330Z,102004.78
2023-02-14T10:47:35.897Z,102001.81
2023-02-14T10:51:01.901Z,102013.63
2023-02-14T10:54:27.395Z,102010.66
2023-02-14T10:57:51.382Z,102000.72
2023-02-14T11:01:14.925Z,101987.25
2023-02-14T11:04:41.557Z,101981.34
2023-02-14T11:08:14.608Z,101986.31
2023-02-14T11:11:39.768Z,101981.38
2023-02-14T11:15:15.618Z,101987.44
2023-02-14T11:18:39.696Z,101982.47
2023-02-14T11:22:02.709Z,101984.31
2023-02-14T11:25:26.968Z,101987.44
2023-02-14T11:28:56.915Z,101982.75
2023-02-14T11:32:22.792Z,101986.25
2023-02-14T11:35:45.927Z,101985.44
2023-02-14T11:39:15.890Z,101973.91
2023-02-14T11:42:43.258Z,101972.50
2023-02-14T11:46:09.442Z,101977.22
2023-02-14T11:49:33.077Z,101976.88
2023-02-14T11:52:57.130Z,101979.56
2023-02-14T11:56:21.418Z,101973.28
2023-02-14T11:59:45.761Z,101966.47
2023-02-14T12:03:16.775Z,101973.38
2023-02-14T12:06:39.309Z,101971.84
2023-02-14T12:10:21.869Z,101973.69
2023-02-14T12:13:45.340Z,101968.16
2023-02-14T12:17:11.043Z,101968.06
2023-02-14T12:20:41.913Z,101963.09
2023-02-14T12:24:06.582Z,101954.66
2023-02-14T12:27:30.497Z,101956.47
2023-02-14T12:30:53.003Z,101947.66
2023-02-14T12:34:16.115Z,101944.72
2023-02-14T12:37:56.071Z,101941.53
2023-02-14T12:41:31.960Z,101936.38
2023-02-14T12:44:57.849Z,101931.31
2023-02-14T12:48:24.909Z,101934.50
2023-02-14T12:51:50.505Z,101929.56
2023-02-14T12:55:29.661Z,101923.16
2023-02-14T12:58:58.063Z,101922.41
2023-02-14T13:02:50.799Z,101920.25
2023-02-14T13:06:16.440Z,101914.91
2023-02-14T13:09:42.371Z,101919.16
2023-02-14T13:13:08.905Z,101912.78
2023-02-14T13:16:35.298Z,101918.91
2023-02-14T13:20:01.169Z,101920.81
2023-02-14T13:23:27.535Z,101922.22
2023-02-14T13:26:53.804Z,101910.47
2023-02-14T13:30:27.614Z,101907.75
2023-02-14T13:33:52.530Z,101909.56
2023-02-14T13:37:16.309Z,101902.00
2023-02-14T13:40:38.785Z,101888.72
2023-02-14T13:44:01.784Z,101896.25
2023-02-14T13:47:25.774Z,101896.88
2023-02-14T13:50:51.737Z,101897.78
2023-02-14T13:54:29.861Z,101896.75
2023-02-14T13:58:02.049Z,101893.56
2023-02-14T14:01:32.806Z,101893.72
2023-02-14T14:04:59.193Z,101898.94
2023-02-14T14:08:40.781Z,101900.25
2023-02-14T14:12:03.983Z,101897.38
2023-02-14T14:15:26.730Z,101889.59
2023-02-14T14:18:50.068Z,101896.94
2023-02-14T14:22:15.419Z,101903.06
2023-02-14T14:25:39.586Z,101908.13
2023-02-14T14:29:02.174Z,101903.66
2023-02-14T14:32:29.590Z,101902.91
2023-02-14T14:35:54.055Z,101907.56
2023-02-14T14:39:28.256Z,101902.66
2023-02-14T14:42:50.436Z,101907.78
2023-02-14T14:46:13.840Z,101900.00
2023-02-14T14:49:36.335Z,101896.94
2023-02-14T14:53:01.327Z,101900.53
2023-02-14T14:56:26.397Z,101897.03
2023-02-14T14:59:49.618Z,101894.03
2023-02-14T15:03:17.444Z,101891.44
2023-02-14T15:06:41.035Z,101891.03
2023-02-14T15:10:03.666Z,101892.38
2023-02-14T15:13:50.885Z,101886.88
2023-02-14T15:17:15.734Z,101889.66
2023-02-14T15:20:39.645Z,101887.53
2023-02-14T15:24:03.011Z,101885.66
2023-02-14T15:27:26.412Z,101884.84
2023-02-14T15:30:50.323Z,101889.84
2023-02-14T15:34:13.564Z,101886.03
2023-02-14T15:37:36.129Z,101892.06
2023-02-14T15:40:59.519Z,101881.84
2023-02-14T15:44:22.615Z,101888.88
2023-02-14T15:47:48.750Z,101888.81
2023-02-14T15:51:17.730Z,101890.94
2023-02-14T15:54:42.734Z,101901.13
2023-02-14T15:58:06.062Z,101900.19
2023-02-14T16:01:30.392Z,101904.37
2023-02-14T16:04:55.324Z,101898.00
2023-02-14T16:08:27.823Z,101907.53
2023-02-14T16:11:50.739Z,101904.53
2023-02-14T16:15:20.194Z,101908.31
2023-02-14T16:18:45.733Z,101917.59
2023-02-14T16:22:10.810Z,101922.84
2023-02-14T16:25:34.216Z,101923.75
2023-02-14T16:28:56.998Z,101926.59
2023-02-14T16:32:21.573Z,101925.19
2023-02-14T16:35:45.937Z,101924.94
2023-02-14T16:39:15.465Z,101936.19
2023-02-14T16:42:40.302Z,101935.13
2023-02-14T16:46:04.486Z,101938.97
2023-02-14T16:49:28.664Z,101938.19
2023-02-14T16:52:52.895Z,101938.03
2023-02-14T16:56:19.662Z,101940.94
2023-02-14T16:59:52.965Z,101947.56
2023-02-14T17:03:15.420Z,101953.44
2023-02-14T17:06:39.675Z,101953.06
2023-02-14T17:10:03.470Z,101964.88
2023-02-14T17:13:29.125Z,101957.12
2023-02-14T17:16:54.305Z,101956.75
2023-02-14T17:20:22.092Z,101961.12
2023-02-14T17:23:46.044Z,101970.13
2023-02-14T17:27:09.964Z,101972.13
2023-02-14T17:30:36.222Z,101963.31
2023-02-14T17:34:01.530Z,101964.28
2023-02-14T17:37:24.705Z,101959.13
2023-02-14T17:40:50.146Z,101960.53
2023-02-14T17:44:14.060Z,101954.03
2023-02-14T17:47:39.141Z,101960.78
2023-02-14T17:51:06.393Z,101959.13
2023-02-14T17:54:31.559Z,101952.03
2023-02-14T17:57:55.525Z,101964.28
2023-02-14T18:01:24.215Z,101963.03
2023-02-14T18:04:52.601Z,101958.44
2023-02-14T18:08:17.197Z,101957.56
2023-02-14T18:11:42.759Z,101952.97
2023-02-14T18:15:07.103Z,101945.81
2023-02-14T18:18:32.196Z,101945.13
2023-02-14T18:21:57.974Z,101955.84
2023-02-14T18:25:23.254Z,101955.63
2023-02-14T18:28:47.092Z,101957.16
2023-02-14T18:32:11.714Z,101956.38
2023-02-14T18:35:38.049Z,101954.41
2023-02-14T18:39:22.446Z,101959.81
2023-02-14T18:42:47.075Z,101959.72
2023-02-14T18:46:13.338Z,101966.03
2023-02-14T18:49:39.376Z,101953.84
2023-02-14T18:53:03.944Z,101960.91
2023-02-14T18:56:36.249Z,101966.22
2023-02-14T19:00:01.362Z,101963.62
2023-02-14T19:03:25.579Z,101964.47
2023-02-14T19:06:50.490Z,101959.28
2023-02-14T19:10:15.825Z,101955.75
2023-02-14T19:13:46.467Z,101957.50
2023-02-14T19:17:12.079Z,101962.81
2023-02-14T19:20:38.648Z,101960.38
2023-02-14T19:24:09.570Z,101966.59
2023-02-14T19:27:35.349Z,101951.47
2023-02-14T19:31:04.824Z,101961.19
2023-02-14T19:34:32.054Z,101959.37
2023-02-14T19:37:57.591Z,101963.00
2023-02-14T19:41:23.335Z,101962.16
2023-02-14T19:44:47.881Z,101954.19
2023-02-14T19:48:15.266Z,101952.28
2023-02-14T19:51:39.827Z,101953.22
2023-02-14T19:55:07.167Z,101956.84
2023-02-14T19:58:34.480Z,101964.75
2023-02-14T20:02:01.077Z,101954.22
2023-02-14T20:05:29.256Z,101960.41
2023-02-14T20:08:57.838Z,101965.69
2023-02-14T20:12:22.085Z,101963.94
2023-02-14T20:15:48.093Z,101971.91
2023-02-14T20:19:14.734Z,101972.81
2023-02-14T20:22:43.699Z,101965.69
2023-02-14T20:26:18.325Z,101971.91
2023-02-14T20:29:45.572Z,101963.94
2023-02-14T20:33:16.354Z,101970.13
2023-02-14T20:36:41.905Z,101971.91
2023-02-14T20:40:11.566Z,101971.84
2023-02-14T20:43:37.810Z,101971.84
2023-02-14T20:47:03.345Z,101970.13
2023-02-14T20:50:28.573Z,101971.00
2023-02-14T20:53:59.878Z,101970.13
2023-02-14T20:57:28.071Z,101964.81
2023-02-14T21:00:55.503Z,101969.19
2023-02-14T21:04:20.986Z,101963.94
2023-02-14T21:07:52.630Z,101967.47
2023-02-14T21:11:18.118Z,101973.56
2023-02-14T21:14:46.829Z,101972.75
2023-02-14T21:18:11.479Z,101965.69
2023-02-14T21:21:36.859Z,101962.88
2023-02-14T21:25:02.931Z,101966.38
2023-02-14T21:28:28.264Z,101966.47
2023-02-14T21:31:54.253Z,101966.53
2023-02-14T21:35:24.382Z,101959.44
2023-02-14T21:38:49.142Z,101965.59
2023-02-14T21:42:17.794Z,101963.88
2023-02-14T21:45:57.523Z,101973.50
2023-02-14T21:49:40.213Z,101970.84
2023-02-14T21:53:07.933Z,101965.53
2023-02-14T21:56:31.944Z,101977.84
2023-02-14T21:59:55.716Z,101974.34
2023-02-14T22:03:19.371Z,101969.94
2023-02-14T22:06:47.530Z,101965.50
2023-02-14T22:10:12.987Z,101969.03
2023-02-14T22:13:36.316Z,101967.28
2023-02-14T22:16:59.052Z,101970.72
2023-02-14T22:20:21.738Z,101979.63
2023-02-14T22:23:46.088Z,101978.81
2023-02-14T22:27:09.018Z,101984.06
2023-02-14T22:30:31.481Z,101990.13
2023-02-14T22:33:54.075Z,101999.72
2023-02-14T22:37:16.556Z,101992.66
2023-02-14T22:40:43.279Z,101992.69
2023-02-14T22:44:05.946Z,101998.91
2023-02-14T22:47:28.608Z,102000.75
2023-02-14T22:50:51.131Z,101992.91
2023-02-14T22:54:14.955Z,101990.06
2023-02-14T22:57:38.901Z,101982.37
2023-02-14T23:01:01.694Z,101988.28
2023-02-14T23:04:24.879Z,101982.87
2023-02-14T23:07:49.684Z,101979.59
2023-02-14T23:11:14.668Z,101976.84
2023-02-14T23:14:56.203Z,101972.28
2023-02-14T23:18:36.497Z,101972.25
2023-02-14T23:21:59.234Z,101980.81
2023-02-14T23:25:21.539Z,101983.41
2023-02-14T23:28:44.021Z,101979.47
2023-02-14T23:32:08.008Z,101973.91
2023-02-14T23:35:31.150Z,101972.44
2023-02-14T23:38:53.655Z,101969.81
2023-02-14T23:42:16.195Z,101969.59
2023-02-14T23:45:41.194Z,101986.84
2023-02-14T23:49:06.596Z,101979.06
2023-02-14T23:52:29.240Z,101987.25
2023-02-14T23:55:51.837Z,101982.00
2023-02-14T23:59:14.663Z,101982.16
